createdAt,value
2018-03-14T00:02:09.053Z,6.32
2018-03-14T00:04:36.623Z,6.33
2018-03-14T00:07:04.124Z,6.26
2018-03-14T00:09:31.649Z,6.28
2018-03-14T00:11:59.180Z,6.28
2018-03-14T00:14:26.727Z,6.33
2018-03-14T00:16:54.267Z,6.30
2018-03-14T00:19:21.865Z,6.18
2018-03-14T00:21:49.323Z,6.16
2018-03-14T00:24:16.928Z,6.23
2018-03-14T00:26:44.471Z,6.23
2018-03-14T00:29:12.030Z,6.33
2018-03-14T00:31:39.556Z,6.31
2018-03-14T00:34:07.072Z,6.41
2018-03-14T00:36:34.608Z,6.41
2018-03-14T00:39:02.132Z,6.37
2018-03-14T00:41:29.652Z,6.48
2018-03-14T00:43:57.184Z,6.37
2018-03-14T00:46:24.706Z,6.36
2018-03-14T00:48:52.241Z,6.34
2018-03-14T00:51:19.746Z,6.36
2018-03-14T00:53:47.276Z,6.24
2018-03-14T00:56:14.821Z,6.13
2018-03-14T00:58:42.365Z,6.21
2018-03-14T01:01:09.918Z,6.26
2018-03-14T01:03:37.481Z,6.24
2018-03-14T01:06:04.998Z,6.25
2018-03-14T01:08:32.521Z,6.26
2018-03-14T01:11:00.076Z,6.23
2018-03-14T01:13:27.617Z,6.23
2018-03-14T01:15:55.152Z,6.30
2018-03-14T01:18:22.695Z,6.26
2018-03-14T01:20:50.212Z,6.21
2018-03-14T01:23:17.738Z,6.22
2018-03-14T01:25:45.276Z,6.22
2018-03-14T01:28:12.813Z,6.25
2018-03-14T01:30:40.354Z,6.33
2018-03-14T01:33:07.926Z,6.28
2018-03-14T01:35:35.470Z,6.22
2018-03-14T01:38:03.017Z,6.18
2018-03-14T01:40:30.563Z,6.18
2018-03-14T01:42:58.123Z,6.29
2018-03-14T01:45:25.643Z,6.25
2018-03-14T01:47:53.201Z,6.20
2018-03-14T01:50:20.940Z,6.17
2018-03-14T01:52:48.493Z,6.30
2018-03-14T01:55:16.027Z,6.28
2018-03-14T01:57:43.572Z,6.24
2018-03-14T02:00:11.106Z,6.27
2018-03-14T02:02:38.633Z,6.24
2018-03-14T02:05:06.154Z,6.30
2018-03-14T02:07:33.726Z,6.24
2018-03-14T02:10:01.248Z,6.23
2018-03-14T02:12:28.770Z,6.21
2018-03-14T02:14:56.301Z,6.19
2018-03-14T02:17:23.824Z,6.21
2018-03-14T02:19:51.494Z,6.14
2018-03-14T02:22:19.028Z,6.19
2018-03-14T02:24:46.546Z,6.21
2018-03-14T02:27:14.119Z,6.14
2018-03-14T02:29:41.659Z,6.21
2018-03-14T02:32:09.206Z,6.18
2018-03-14T02:34:36.826Z,6.14
2018-03-14T02:37:04.355Z,6.13
2018-03-14T02:39:31.864Z,6.00
2018-03-14T02:41:59.410Z,5.97
2018-03-14T02:44:26.935Z,5.99
2018-03-14T02:46:54.463Z,5.98
2018-03-14T02:49:21.975Z,6.07
2018-03-14T02:51:49.490Z,6.07
2018-03-14T02:54:17.008Z,6.05
2018-03-14T02:56:44.520Z,6.00
2018-03-14T02:59:12.041Z,6.03
2018-03-14T03:01:39.538Z,5.97
2018-03-14T03:04:07.076Z,5.91
2018-03-14T03:06:34.568Z,6.00
2018-03-14T03:09:02.151Z,5.96
2018-03-14T03:11:29.673Z,5.87
2018-03-14T03:13:57.170Z,5.95
2018-03-14T03:16:24.683Z,5.98
2018-03-14T03:18:52.185Z,6.02
2018-03-14T03:21:19.691Z,5.93
2018-03-14T03:23:47.199Z,6.02
2018-03-14T03:26:14.732Z,5.93
2018-03-14T03:28:42.247Z,6.00
2018-03-14T03:31:09.754Z,5.94
2018-03-14T03:33:37.269Z,5.85
2018-03-14T03:36:04.767Z,5.83
2018-03-14T03:38:32.270Z,5.88
2018-03-14T03:40:59.779Z,5.92
2018-03-14T03:43:27.287Z,5.96
2018-03-14T03:45:54.819Z,5.92
2018-03-14T03:48:22.406Z,5.89
2018-03-14T03:50:49.922Z,5.89
2018-03-14T03:53:17.449Z,5.89
2018-03-14T03:55:44.969Z,5.94
2018-03-14T03:58:12.481Z,5.94
2018-03-14T04:00:40.048Z,5.92
2018-03-14T04:03:07.637Z,6.04
2018-03-14T04:05:35.147Z,5.88
2018-03-14T04:08:02.681Z,5.92
2018-03-14T04:10:30.241Z,5.88
2018-03-14T04:12:57.744Z,5.92
2018-03-14T04:15:25.247Z,5.91
2018-03-14T04:17:52.833Z,5.77
2018-03-14T04:20:20.360Z,5.81
2018-03-14T04:22:47.930Z,5.82
2018-03-14T04:25:15.439Z,5.79
2018-03-14T04:27:42.989Z,5.72
2018-03-14T04:30:10.477Z,5.76
2018-03-14T04:32:38.240Z,5.75
2018-03-14T04:35:05.758Z,5.73
2018-03-14T04:37:33.265Z,5.72
2018-03-14T04:40:00.776Z,5.70
2018-03-14T04:42:28.303Z,5.76
2018-03-14T04:44:55.797Z,5.80
2018-03-14T04:47:23.298Z,5.79
2018-03-14T04:49:50.804Z,5.81
2018-03-14T04:52:18.288Z,5.81
2018-03-14T04:54:45.806Z,5.85
2018-03-14T04:57:13.308Z,5.81
2018-03-14T04:59:40.822Z,5.73
2018-03-14T05:02:08.343Z,5.69
2018-03-14T05:04:35.863Z,5.72
2018-03-14T05:07:03.410Z,5.64
2018-03-14T05:09:30.911Z,5.61
2018-03-14T05:11:58.444Z,5.53
2018-03-14T05:14:25.921Z,5.57
2018-03-14T05:16:53.467Z,5.51
2018-03-14T05:19:20.973Z,5.37
2018-03-14T05:21:48.496Z,5.31
2018-03-14T05:24:16.003Z,5.26
2018-03-14T05:26:43.535Z,5.26
2018-03-14T05:29:11.045Z,5.33
2018-03-14T05:31:38.577Z,5.35
2018-03-14T05:34:06.103Z,5.37
2018-03-14T05:36:33.654Z,5.39
2018-03-14T05:39:01.176Z,5.46
2018-03-14T05:41:29.019Z,5.49
2018-03-14T05:43:56.537Z,5.43
2018-03-14T05:46:24.063Z,5.50
2018-03-14T05:48:51.574Z,5.59
2018-03-14T05:51:19.126Z,5.53
2018-03-14T05:53:46.640Z,5.43
2018-03-14T05:56:14.143Z,5.57
2018-03-14T05:58:41.628Z,5.61
2018-03-14T06:01:09.197Z,5.56
2018-03-14T06:03:36.692Z,5.52
2018-03-14T06:06:04.212Z,5.57
2018-03-14T06:08:31.722Z,5.66
2018-03-14T06:10:59.255Z,5.61
2018-03-14T06:13:26.764Z,5.69
2018-03-14T06:15:54.337Z,5.72
2018-03-14T06:18:21.878Z,5.73
2018-03-14T06:20:49.402Z,5.70
2018-03-14T06:23:17.016Z,5.78
2018-03-14T06:25:44.507Z,5.80
2018-03-14T06:28:16.655Z,5.89
2018-03-14T06:30:44.195Z,5.89
2018-03-14T06:33:11.704Z,6.00
2018-03-14T06:35:39.238Z,5.99
2018-03-14T06:38:06.747Z,6.09
2018-03-14T06:40:34.378Z,6.26
2018-03-14T06:43:01.907Z,6.41
2018-03-14T06:45:29.422Z,6.40
2018-03-14T06:47:56.941Z,6.42
2018-03-14T06:50:24.463Z,6.59
2018-03-14T06:52:52.348Z,6.67
2018-03-14T06:55:19.883Z,6.86
2018-03-14T06:57:47.356Z,6.80
2018-03-14T07:00:26.535Z,6.83
2018-03-14T07:03:05.699Z,6.93
2018-03-14T07:05:45.084Z,6.89
2018-03-14T07:08:12.618Z,7.07
2018-03-14T07:10:40.114Z,7.02
2018-03-14T07:13:07.662Z,7.24
2018-03-14T07:15:35.169Z,7.34
2018-03-14T07:18:02.640Z,7.44
2018-03-14T07:20:30.170Z,7.53
2018-03-14T07:22:57.691Z,7.61
2018-03-14T07:25:25.259Z,7.27
2018-03-14T07:27:52.775Z,7.44
2018-03-14T07:30:20.285Z,7.33
2018-03-14T07:32:47.781Z,7.37
2018-03-14T07:35:15.306Z,7.45
2018-03-14T07:37:42.812Z,7.47
2018-03-14T07:40:10.326Z,7.67
2018-03-14T07:42:37.838Z,7.87
2018-03-14T07:45:05.346Z,7.75
2018-03-14T07:47:32.871Z,7.93
2018-03-14T07:50:00.457Z,8.18
2018-03-14T07:52:27.986Z,8.04
2018-03-14T07:54:55.582Z,8.15
2018-03-14T07:57:23.079Z,8.05
2018-03-14T07:59:50.653Z,8.12
2018-03-14T08:02:18.298Z,8.40
2018-03-14T08:04:46.071Z,8.41
2018-03-14T08:07:13.611Z,8.16
2018-03-14T08:09:42.166Z,8.45
2018-03-14T08:12:09.667Z,8.37
2018-03-14T08:14:37.195Z,8.33
2018-03-14T08:17:04.733Z,8.70
2018-03-14T08:19:32.230Z,8.66
2018-03-14T08:21:59.746Z,8.70
2018-03-14T08:24:27.226Z,8.69
2018-03-14T08:26:54.761Z,8.57
2018-03-14T08:29:22.236Z,8.77
2018-03-14T08:31:49.776Z,9.11
2018-03-14T08:34:17.298Z,9.29
2018-03-14T08:36:44.801Z,9.49
2018-03-14T08:39:12.300Z,9.32
2018-03-14T08:41:39.825Z,8.92
2018-03-14T08:44:07.305Z,9.27
2018-03-14T08:46:34.816Z,9.26
2018-03-14T08:49:02.364Z,9.51
2018-03-14T08:51:29.887Z,9.92
2018-03-14T08:53:57.409Z,10.01
2018-03-14T08:56:24.989Z,9.45
2018-03-14T08:58:52.496Z,9.66
2018-03-14T09:01:20.003Z,9.83
2018-03-14T09:03:47.556Z,9.97
2018-03-14T09:06:15.178Z,10.21
2018-03-14T09:08:42.687Z,9.85
2018-03-14T09:11:10.285Z,10.56
2018-03-14T09:13:37.743Z,10.13
2018-03-14T09:16:05.247Z,9.87
2018-03-14T09:18:32.747Z,9.66
2018-03-14T09:21:00.327Z,10.02
2018-03-14T09:23:27.817Z,10.42
2018-03-14T09:25:55.302Z,10.57
2018-03-14T09:28:22.804Z,10.56
2018-03-14T09:30:50.307Z,10.89
2018-03-14T09:33:17.840Z,11.35
2018-03-14T09:35:45.463Z,11.58
2018-03-14T09:38:12.975Z,11.75
2018-03-14T09:40:40.510Z,12.34
2018-03-14T09:43:07.990Z,11.54
2018-03-14T09:45:35.534Z,11.45
2018-03-14T09:48:03.034Z,11.17
2018-03-14T09:50:30.615Z,11.22
2018-03-14T09:52:58.202Z,11.31
2018-03-14T09:55:25.694Z,11.36
2018-03-14T09:57:53.174Z,11.33
2018-03-14T10:00:20.667Z,11.50
2018-03-14T10:02:48.127Z,11.17
2018-03-14T10:05:16.534Z,10.94
2018-03-14T10:07:44.026Z,11.43
2018-03-14T10:10:11.579Z,11.34
2018-03-14T10:12:39.163Z,11.81
2018-03-14T10:15:06.939Z,11.92
2018-03-14T10:17:34.418Z,11.99
2018-03-14T10:20:02.067Z,12.39
2018-03-14T10:22:29.559Z,12.11
2018-03-14T10:24:57.044Z,11.86
2018-03-14T10:27:24.605Z,11.69
2018-03-14T10:29:52.141Z,11.91
2018-03-14T10:32:19.639Z,12.33
2018-03-14T10:34:49.126Z,13.07
2018-03-14T10:37:16.704Z,13.53
2018-03-14T10:39:44.225Z,14.19
2018-03-14T10:42:11.705Z,14.46
2018-03-14T10:44:39.196Z,14.23
2018-03-14T10:47:06.727Z,14.24
2018-03-14T10:49:34.214Z,14.14
2018-03-14T10:52:01.699Z,13.95
2018-03-14T10:54:29.313Z,13.90
2018-03-14T10:56:56.827Z,13.79
2018-03-14T10:59:24.318Z,14.30
2018-03-14T11:01:51.817Z,14.69
2018-03-14T11:04:19.359Z,14.45
2018-03-14T11:06:46.827Z,13.77
2018-03-14T11:09:14.326Z,13.78
2018-03-14T11:11:41.813Z,13.94
2018-03-14T11:14:09.344Z,14.03
2018-03-14T11:16:36.826Z,14.05
2018-03-14T11:19:04.353Z,14.00
2018-03-14T11:21:31.968Z,14.20
2018-03-14T11:23:59.432Z,14.22
2018-03-14T11:26:26.992Z,14.12
2018-03-14T11:28:54.509Z,14.03
2018-03-14T11:31:22.314Z,14.00
2018-03-14T11:33:50.001Z,13.99
2018-03-14T11:36:17.539Z,13.82
2018-03-14T11:38:45.010Z,14.64
2018-03-14T11:41:12.499Z,15.02
2018-03-14T11:43:39.984Z,14.38
2018-03-14T11:46:07.500Z,15.47
2018-03-14T11:48:35.083Z,15.72
2018-03-14T11:51:02.536Z,15.78
2018-03-14T11:53:30.051Z,16.15
2018-03-14T11:55:57.550Z,17.08
2018-03-14T11:58:26.203Z,16.44
2018-03-14T12:00:53.747Z,16.60
2018-03-14T12:03:21.269Z,16.16
2018-03-14T12:05:48.772Z,16.16
2018-03-14T12:08:16.396Z,16.77
2018-03-14T12:10:43.900Z,16.50
2018-03-14T12:13:11.981Z,15.15
2018-03-14T12:15:39.858Z,14.74
2018-03-14T12:18:07.309Z,15.48
2018-03-14T12:20:35.041Z,17.40
2018-03-14T12:23:03.415Z,20.35
2018-03-14T12:25:31.320Z,20.01
2018-03-14T12:27:58.856Z,17.98
2018-03-14T12:30:26.353Z,20.67
2018-03-14T12:32:54.837Z,23.52
2018-03-14T12:35:22.358Z,23.57
2018-03-14T12:37:49.879Z,23.06
2018-03-14T12:40:17.420Z,23.76
2018-03-14T12:42:44.906Z,23.57
2018-03-14T12:45:12.405Z,23.14
2018-03-14T12:47:39.935Z,24.25
2018-03-14T12:50:07.468Z,24.97
2018-03-14T12:52:35.137Z,26.11
2018-03-14T12:55:02.849Z,26.43
2018-03-14T12:57:30.942Z,27.18
2018-03-14T12:59:58.426Z,29.01
2018-03-14T13:02:25.977Z,27.22
2018-03-14T13:04:54.759Z,27.91
2018-03-14T13:07:22.418Z,28.54
2018-03-14T13:09:50.000Z,27.25
2018-03-14T13:12:18.561Z,28.59
2018-03-14T13:14:46.395Z,29.27
2018-03-14T13:17:13.904Z,29.91
2018-03-14T13:19:41.422Z,28.25
2018-03-14T13:22:09.032Z,23.56
2018-03-14T13:24:36.713Z,21.60
2018-03-14T13:27:04.363Z,19.54
2018-03-14T13:29:31.881Z,20.73
2018-03-14T13:31:59.406Z,25.19
2018-03-14T13:34:26.993Z,29.34
2018-03-14T13:36:54.567Z,29.11
2018-03-14T13:39:22.088Z,30.16
2018-03-14T13:41:50.694Z,29.15
2018-03-14T13:44:18.209Z,27.03
2018-03-14T13:46:45.729Z,28.55
2018-03-14T13:49:13.236Z,30.22
2018-03-14T13:51:40.754Z,28.02
2018-03-14T13:54:08.246Z,30.27
2018-03-14T13:56:35.784Z,31.45
2018-03-14T13:59:03.352Z,30.13
2018-03-14T14:01:30.846Z,27.12
2018-03-14T14:03:58.347Z,27.80
2018-03-14T14:06:25.900Z,27.41
2018-03-14T14:08:53.418Z,27.42
2018-03-14T14:11:20.947Z,30.05
2018-03-14T14:13:48.449Z,25.15
2018-03-14T14:16:16.475Z,23.30
2018-03-14T14:18:43.983Z,26.18
2018-03-14T14:21:11.505Z,28.67
2018-03-14T14:23:39.116Z,27.91
2018-03-14T14:26:06.608Z,28.73
2018-03-14T14:28:34.164Z,30.79
2018-03-14T14:31:01.743Z,33.17
2018-03-14T14:33:29.254Z,32.78
2018-03-14T14:35:56.849Z,33.36
2018-03-14T14:38:24.396Z,32.10
2018-03-14T14:40:52.163Z,33.95
2018-03-14T14:43:19.688Z,32.34
2018-03-14T14:45:47.357Z,31.39
2018-03-14T14:48:14.870Z,31.02
2018-03-14T14:50:43.236Z,31.73
2018-03-14T14:53:10.740Z,30.27
2018-03-14T14:55:38.233Z,29.81
2018-03-14T14:58:05.724Z,30.56
2018-03-14T15:00:33.350Z,30.14
2018-03-14T15:03:00.861Z,29.76
2018-03-14T15:05:28.397Z,30.52
2018-03-14T15:07:55.914Z,31.53
2018-03-14T15:10:23.390Z,31.53
2018-03-14T15:12:50.888Z,30.75
2018-03-14T15:15:18.524Z,30.93
2018-03-14T15:17:46.003Z,30.16
2018-03-14T15:20:13.525Z,30.07
2018-03-14T15:22:41.015Z,30.63
2018-03-14T15:25:08.503Z,29.45
2018-03-14T15:27:36.023Z,28.41
2018-03-14T15:30:03.559Z,29.02
2018-03-14T15:32:31.117Z,28.88
2018-03-14T15:34:58.595Z,27.77
2018-03-14T15:37:26.126Z,27.84
2018-03-14T15:39:53.640Z,28.24
2018-03-14T15:42:21.176Z,28.16
2018-03-14T15:44:48.671Z,26.55
2018-03-14T15:47:16.171Z,27.86
2018-03-14T15:49:43.675Z,28.06
2018-03-14T15:52:11.234Z,27.29
2018-03-14T15:54:38.765Z,27.90
2018-03-14T15:57:06.389Z,25.41
2018-03-14T15:59:33.900Z,26.95
2018-03-14T16:02:01.413Z,26.36
2018-03-14T16:04:28.936Z,26.86
2018-03-14T16:06:56.455Z,26.24
2018-03-14T16:09:23.939Z,26.60
2018-03-14T16:11:51.499Z,26.26
2018-03-14T16:14:19.047Z,25.25
2018-03-14T16:16:46.646Z,25.56
2018-03-14T16:19:14.181Z,24.11
2018-03-14T16:24:27.046Z,24.32
2018-03-14T16:26:54.531Z,23.46
2018-03-14T16:29:22.135Z,24.76
2018-03-14T16:31:49.634Z,23.42
2018-03-14T16:37:07.828Z,22.77
2018-03-14T16:39:35.381Z,24.05
2018-03-14T16:42:03.042Z,23.07
2018-03-14T16:44:30.573Z,23.30
2018-03-14T16:46:59.176Z,22.28
2018-03-14T16:49:26.734Z,22.09
2018-03-14T16:51:54.238Z,20.05
2018-03-14T16:54:21.854Z,18.09
2018-03-14T16:56:49.332Z,17.17
2018-03-14T16:59:16.821Z,15.60
2018-03-14T17:01:44.321Z,14.63
2018-03-14T17:04:11.806Z,14.02
2018-03-14T17:06:39.347Z,13.24
2018-03-14T17:09:06.862Z,12.73
2018-03-14T17:11:34.361Z,12.21
2018-03-14T17:14:01.990Z,11.71
2018-03-14T17:16:29.595Z,11.43
2018-03-14T17:18:57.197Z,10.99
2018-03-14T17:21:24.749Z,10.61
2018-03-14T17:23:52.296Z,10.53
2018-03-14T17:26:19.805Z,10.35
2018-03-14T17:28:47.397Z,10.15
2018-03-14T17:31:15.759Z,9.89
2018-03-14T17:33:43.289Z,9.67
2018-03-14T17:36:10.832Z,9.46
2018-03-14T17:38:38.333Z,9.33
2018-03-14T17:41:05.844Z,9.28
2018-03-14T17:43:33.426Z,9.01
2018-03-14T17:46:01.084Z,8.94
2018-03-14T17:48:28.638Z,8.82
2018-03-14T17:50:56.134Z,8.74
2018-03-14T17:53:23.613Z,8.65
2018-03-14T17:55:51.231Z,8.49
2018-03-14T17:58:18.773Z,8.42
2018-03-14T18:00:46.282Z,8.36
2018-03-14T18:03:13.808Z,8.22
2018-03-14T18:05:41.342Z,8.11
2018-03-14T18:08:08.857Z,8.02
2018-03-14T18:10:36.373Z,7.91
2018-03-14T18:13:03.892Z,7.87
2018-03-14T18:15:31.387Z,7.79
2018-03-14T18:17:58.947Z,7.71
2018-03-14T18:20:26.480Z,7.57
2018-03-14T18:22:53.998Z,7.52
2018-03-14T18:25:21.542Z,7.45
2018-03-14T18:27:49.084Z,7.34
2018-03-14T18:30:16.892Z,7.27
2018-03-14T18:32:44.391Z,7.20
2018-03-14T18:35:11.938Z,7.15
2018-03-14T18:37:39.503Z,7.05
2018-03-14T18:40:07.008Z,6.94
2018-03-14T18:42:36.268Z,6.90
2018-03-14T18:45:07.514Z,6.82
2018-03-14T18:47:35.038Z,6.72
2018-03-14T18:50:10.204Z,6.66
2018-03-14T18:52:37.866Z,6.62
2018-03-14T18:55:06.634Z,6.59
2018-03-14T18:57:35.447Z,6.50
2018-03-14T19:00:04.134Z,6.54
2018-03-14T19:02:31.727Z,6.52
2018-03-14T19:04:59.350Z,6.43
2018-03-14T19:07:35.554Z,6.39
2018-03-14T19:10:26.670Z,6.41
2018-03-14T19:12:54.305Z,6.40
2018-03-14T19:15:22.386Z,6.36
2018-03-14T19:17:50.713Z,6.34
2018-03-14T19:20:19.801Z,6.29
2018-03-14T19:22:47.302Z,6.21
2018-03-14T19:25:14.966Z,6.14
2018-03-14T19:27:42.517Z,6.18
2018-03-14T19:30:13.378Z,6.30
2018-03-14T19:32:49.522Z,6.26
2018-03-14T19:35:17.092Z,6.28
2018-03-14T19:37:45.053Z,6.18
2018-03-14T19:40:13.354Z,6.10
2018-03-14T19:42:45.295Z,6.01
2018-03-14T19:45:18.280Z,5.87
2018-03-14T19:47:49.937Z,5.75
2018-03-14T19:50:20.615Z,5.75
2018-03-14T19:52:50.149Z,5.67
2018-03-14T19:55:18.005Z,5.62
2018-03-14T19:57:45.541Z,5.65
2018-03-14T20:00:17.266Z,5.55
2018-03-14T20:02:45.552Z,5.47
2018-03-14T20:05:13.229Z,5.40
2018-03-14T20:07:43.087Z,5.36
2018-03-14T20:10:13.165Z,5.28
2018-03-14T20:12:41.231Z,5.23
2018-03-14T20:15:36.256Z,5.13
2018-03-14T20:18:04.008Z,5.07
2018-03-14T20:20:38.517Z,5.01
2018-03-14T20:23:06.238Z,5.02
2018-03-14T20:25:34.397Z,5.04
2018-03-14T20:28:10.818Z,4.97
2018-03-14T20:30:38.591Z,5.06
2018-03-14T20:33:08.787Z,5.02
2018-03-14T20:35:36.393Z,4.99
2018-03-14T20:38:04.099Z,4.97
2018-03-14T20:40:54.433Z,4.97
2018-03-14T20:45:56.134Z,5.02
2018-03-14T20:48:34.660Z,4.94
2018-03-14T20:51:04.684Z,4.91
2018-03-14T20:53:36.124Z,4.92
2018-03-14T20:56:04.164Z,4.88
2018-03-14T20:58:32.154Z,4.82
2018-03-14T21:01:21.627Z,4.82
2018-03-14T21:03:49.187Z,4.78
2018-03-14T21:06:17.211Z,4.73
2018-03-14T21:08:45.609Z,4.72
2018-03-14T21:11:15.230Z,4.76
2018-03-14T21:16:23.012Z,4.71
2018-03-14T21:18:50.599Z,4.71
2018-03-14T21:21:18.159Z,4.68
2018-03-14T21:23:45.733Z,4.65
2018-03-14T21:26:13.251Z,4.63
2018-03-14T21:28:41.134Z,4.55
2018-03-14T21:31:08.641Z,4.51
2018-03-14T21:33:36.183Z,4.43
2018-03-14T21:36:03.778Z,4.40
2018-03-14T21:38:31.294Z,4.37
2018-03-14T21:40:58.809Z,4.34
2018-03-14T21:43:26.360Z,4.34
2018-03-14T21:45:53.985Z,4.34
2018-03-14T21:48:21.666Z,4.28
2018-03-14T21:50:49.267Z,4.30
2018-03-14T21:53:16.799Z,4.36
2018-03-14T21:55:44.378Z,4.33
2018-03-14T21:58:11.977Z,4.41
2018-03-14T22:00:39.710Z,4.40
2018-03-14T22:03:07.256Z,4.37
2018-03-14T22:05:34.905Z,4.35
2018-03-14T22:08:02.491Z,4.32
2018-03-14T22:10:30.077Z,4.31
2018-03-14T22:12:57.600Z,4.27
2018-03-14T22:15:25.107Z,4.24
2018-03-14T22:17:53.670Z,4.19
2018-03-14T22:20:21.186Z,4.17
2018-03-14T22:22:48.751Z,4.10
2018-03-14T22:25:16.233Z,4.08
2018-03-14T22:27:43.761Z,4.07
2018-03-14T22:30:11.262Z,3.97
2018-03-14T22:32:38.773Z,3.93
2018-03-14T22:35:06.296Z,3.88
2018-03-14T22:37:33.897Z,3.92
2018-03-14T22:40:01.423Z,3.85
2018-03-14T22:42:29.002Z,3.86
2018-03-14T22:44:56.543Z,3.84
2018-03-14T22:47:26.188Z,3.84
2018-03-14T22:49:53.734Z,3.73
2018-03-14T22:58:09.007Z,3.65
2018-03-14T23:00:36.909Z,3.65
2018-03-14T23:03:04.417Z,3.69
2018-03-14T23:05:32.421Z,3.67
2018-03-14T23:07:59.928Z,3.70
2018-03-14T23:10:30.772Z,3.68
2018-03-14T23:12:58.303Z,3.58
2018-03-14T23:15:25.847Z,3.60
2018-03-14T23:17:53.348Z,3.57
2018-03-14T23:20:20.871Z,3.56
2018-03-14T23:22:48.388Z,3.49
2018-03-14T23:25:15.885Z,3.53
2018-03-14T23:27:43.389Z,3.52
2018-03-14T23:30:10.892Z,3.57
2018-03-14T23:32:38.478Z,3.64
2018-03-14T23:35:05.998Z,3.66
2018-03-14T23:37:33.550Z,3.62
2018-03-14T23:40:01.184Z,3.62
2018-03-14T23:42:28.710Z,3.63
2018-03-14T23:44:56.518Z,3.66
2018-03-14T23:47:24.036Z,3.70
2018-03-14T23:49:51.527Z,3.71
2018-03-14T23:52:19.089Z,3.68
2018-03-14T23:54:46.579Z,3.74
2018-03-14T23:57:14.090Z,3.69
2018-03-14T23:59:41.569Z,3.68
